sensor_id;sensor_type;location;lat;lon;timestamp;pressure;altitude;pressure_sealevel;temperature;humidity
7335;BME280;3708;42.632;23.378;2023-02-15T00:01:05;95458.56;;;3.81;60.25
7335;BME280;3708;42.632;23.378;2023-02-15T00:03:32;95452.38;;;3.88;59.35
7335;BME280;3708;42.632;23.378;2023-02-15T00:06:01;95459.50;;;3.70;59.38
7335;BME280;3708;42.632;23.378;2023-02-15T00:08:27;95451.06;;;3.85;59.67
7335;BME280;3708;42.632;23.378;2023-02-15T00:11:03;95454.75;;;3.62;60.15
7335;BME280;3708;42.632;23.378;2023-02-15T00:13:30;95456.13;;;3.43;59.90
7335;BME280;3708;42.632;23.378;2023-02-15T00:16:01;95468.06;;;3.44;60.46
7335;BME280;3708;42.632;23.378;2023-02-15T00:18:28;95465.09;;;3.62;60.46
7335;BME280;3708;42.632;23.378;2023-02-15T00:20:55;95469.22;;;3.32;61.34
7335;BME280;3708;42.632;23.378;2023-02-15T00:23:24;95474.78;;;3.45;60.51
7335;BME280;3708;42.632;23.378;2023-02-15T00:25:52;95484.50;;;3.33;61.43
7335;BME280;3708;42.632;23.378;2023-02-15T00:28:19;95473.91;;;3.61;60.91
7335;BME280;3708;42.632;23.378;2023-02-15T00:30:47;95477.56;;;3.39;60.92
7335;BME280;3708;42.632;23.378;2023-02-15T00:33:13;95476.16;;;3.53;60.47
7335;BME280;3708;42.632;23.378;2023-02-15T00:35:40;95475.72;;;3.88;59.57
7335;BME280;3708;42.632;23.378;2023-02-15T00:38:07;95476.59;;;3.71;60.20
7335;BME280;3708;42.632;23.378;2023-02-15T00:40:35;95467.06;;;3.77;59.74
7335;BME280;3708;42.632;23.378;2023-02-15T00:43:02;95465.72;;;3.43;61.28
7335;BME280;3708;42.632;23.378;2023-02-15T00:45:29;95466.69;;;3.63;60.39
7335;BME280;3708;42.632;23.378;2023-02-15T00:47:56;95474.59;;;3.52;60.69
7335;BME280;3708;42.632;23.378;2023-02-15T00:50:23;95472.81;;;3.04;62.58
7335;BME280;3708;42.632;23.378;2023-02-15T00:52:50;95468.56;;;3.20;61.78
7335;BME280;3708;42.632;23.378;2023-02-15T00:55:17;95476.03;;;3.16;60.97
7335;BME280;3708;42.632;23.378;2023-02-15T00:57:49;95461.69;;;3.30;61.37
7335;BME280;3708;42.632;23.378;2023-02-15T01:00:18;95460.56;;;3.21;61.79
7335;BME280;3708;42.632;23.378;2023-02-15T01:02:45;95464.06;;;3.10;61.68
7335;BME280;3708;42.632;23.378;2023-02-15T01:05:12;95461.13;;;3.28;61.58
7335;BME280;3708;42.632;23.378;2023-02-15T01:07:39;95462.91;;;3.23;61.09
7335;BME280;3708;42.632;23.378;2023-02-15T01:10:07;95470.44;;;3.02;61.27
7335;BME280;3708;42.632;23.378;2023-02-15T01:12:34;95469.81;;;3.17;61.50
7335;BME280;3708;42.632;23.378;2023-02-15T01:15:03;95453.56;;;3.22;61.59
7335;BME280;3708;42.632;23.378;2023-02-15T01:17:31;95446.66;;;3.05;62.15
7335;BME280;3708;42.632;23.378;2023-02-15T01:19:58;95461.66;;;3.25;61.22
7335;BME280;3708;42.632;23.378;2023-02-15T01:22:25;95446.91;;;3.04;62.00
7335;BME280;3708;42.632;23.378;2023-02-15T01:24:52;95451.97;;;2.94;62.89
7335;BME280;3708;42.632;23.378;2023-02-15T01:27:19;95456.63;;;3.40;61.29
7335;BME280;3708;42.632;23.378;2023-02-15T01:29:46;95446.53;;;3.44;61.19
7335;BME280;3708;42.632;23.378;2023-02-15T01:32:15;95442.81;;;3.08;62.39
7335;BME280;3708;42.632;23.378;2023-02-15T01:34:42;95443.91;;;3.12;62.59
7335;BME280;3708;42.632;23.378;2023-02-15T01:37:09;95446.78;;;2.94;62.35
7335;BME280;3708;42.632;23.378;2023-02-15T01:39:35;95442.25;;;3.28;61.95
7335;BME280;3708;42.632;23.378;2023-02-15T01:42:02;95441.91;;;3.72;60.58
7335;BME280;3708;42.632;23.378;2023-02-15T01:44:50;95439.97;;;3.63;60.81
7335;BME280;3708;42.632;23.378;2023-02-15T01:47:22;95439.97;;;3.63;60.64
7335;BME280;3708;42.632;23.378;2023-02-15T01:49:57;95436.59;;;3.62;59.74
7335;BME280;3708;42.632;23.378;2023-02-15T01:52:25;95430.84;;;2.80;63.07
7335;BME280;3708;42.632;23.378;2023-02-15T01:54:52;95434.81;;;3.36;62.04
7335;BME280;3708;42.632;23.378;2023-02-15T01:57:22;95428.81;;;3.62;61.21
7335;BME280;3708;42.632;23.378;2023-02-15T01:59:54;95432.78;;;3.38;62.21
7335;BME280;3708;42.632;23.378;2023-02-15T02:02:23;95430.22;;;3.70;60.57
7335;BME280;3708;42.632;23.378;2023-02-15T02:04:52;95429.25;;;3.23;62.29
7335;BME280;3708;42.632;23.378;2023-02-15T02:07:24;95424.63;;;3.56;61.62
7335;BME280;3708;42.632;23.378;2023-02-15T02:09:52;95421.47;;;3.49;60.58
7335;BME280;3708;42.632;23.378;2023-02-15T02:12:21;95430.41;;;3.10;62.47
7335;BME280;3708;42.632;23.378;2023-02-15T02:14:50;95431.97;;;2.89;63.18
7335;BME280;3708;42.632;23.378;2023-02-15T02:17:26;95429.13;;;3.39;61.96
7335;BME280;3708;42.632;23.378;2023-02-15T02:20:16;95435.84;;;3.35;62.01
7335;BME280;3708;42.632;23.378;2023-02-15T02:23:11;95437.56;;;3.25;62.36
7335;BME280;3708;42.632;23.378;2023-02-15T02:29:03;95446.97;;;2.87;63.65
7335;BME280;3708;42.632;23.378;2023-02-15T02:31:52;95445.69;;;2.90;63.09
7335;BME280;3708;42.632;23.378;2023-02-15T02:34:29;95455.59;;;3.20;63.17
7335;BME280;3708;42.632;23.378;2023-02-15T02:37:19;95448.41;;;3.48;62.14
7335;BME280;3708;42.632;23.378;2023-02-15T02:39:55;95448.75;;;3.88;60.90
7335;BME280;3708;42.632;23.378;2023-02-15T02:42:29;95445.13;;;3.58;60.90
7335;BME280;3708;42.632;23.378;2023-02-15T02:45:02;95440.03;;;3.41;61.66
7335;BME280;3708;42.632;23.378;2023-02-15T02:47:33;95443.31;;;3.32;62.27
7335;BME280;3708;42.632;23.378;2023-02-15T02:50:07;95453.00;;;3.68;61.30
7335;BME280;3708;42.632;23.378;2023-02-15T02:52:37;95452.13;;;2.87;63.04
7335;BME280;3708;42.632;23.378;2023-02-15T02:55:06;95441.38;;;3.44;61.30
7335;BME280;3708;42.632;23.378;2023-02-15T02:57:37;95445.41;;;3.61;61.85
7335;BME280;3708;42.632;23.378;2023-02-15T03:00:08;95451.38;;;3.35;61.63
7335;BME280;3708;42.632;23.378;2023-02-15T03:02:38;95458.38;;;3.61;61.39
7335;BME280;3708;42.632;23.378;2023-02-15T03:05:11;95465.28;;;3.56;61.15
7335;BME280;3708;42.632;23.378;2023-02-15T03:07:41;95466.38;;;3.33;61.93
7335;BME280;3708;42.632;23.378;2023-02-15T03:10:09;95456.09;;;3.38;61.98
7335;BME280;3708;42.632;23.378;2023-02-15T03:12:38;95466.59;;;3.53;61.51
7335;BME280;3708;42.632;23.378;2023-02-15T03:15:10;95468.75;;;3.13;63.09
7335;BME280;3708;42.632;23.378;2023-02-15T03:17:41;95472.97;;;3.19;63.26
7335;BME280;3708;42.632;23.378;2023-02-15T03:20:16;95466.59;;;3.05;63.25
7335;BME280;3708;42.632;23.378;2023-02-15T03:22:48;95464.47;;;3.02;63.04
7335;BME280;3708;42.632;23.378;2023-02-15T03:25:19;95463.41;;;3.46;62.05
7335;BME280;3708;42.632;23.378;2023-02-15T03:27:51;95464.88;;;3.37;62.16
7335;BME280;3708;42.632;23.378;2023-02-15T03:30:21;95463.94;;;3.48;62.04
7335;BME280;3708;42.632;23.378;2023-02-15T03:32:49;95460.88;;;3.03;63.34
7335;BME280;3708;42.632;23.378;2023-02-15T03:35:21;95462.47;;;3.57;62.16
7335;BME280;3708;42.632;23.378;2023-02-15T03:37:53;95465.53;;;3.49;61.91
7335;BME280;3708;42.632;23.378;2023-02-15T03:40:24;95461.28;;;3.17;63.01
7335;BME280;3708;42.632;23.378;2023-02-15T03:43:14;95462.28;;;3.64;61.73
7335;BME280;3708;42.632;23.378;2023-02-15T03:45:45;95462.38;;;3.21;63.11
7335;BME280;3708;42.632;23.378;2023-02-15T03:48:22;95456.44;;;3.47;62.14
7335;BME280;3708;42.632;23.378;2023-02-15T03:50:53;95466.31;;;3.28;62.56
7335;BME280;3708;42.632;23.378;2023-02-15T03:53:39;95466.56;;;3.27;62.88
7335;BME280;3708;42.632;23.378;2023-02-15T03:56:07;95462.38;;;3.47;61.93
7335;BME280;3708;42.632;23.378;2023-02-15T03:58:33;95463.69;;;3.50;61.88
7335;BME280;3708;42.632;23.378;2023-02-15T04:01:22;95470.88;;;3.69;62.12
7335;BME280;3708;42.632;23.378;2023-02-15T04:04:28;95467.69;;;3.62;61.53
7335;BME280;3708;42.632;23.378;2023-02-15T04:06:58;95459.53;;;3.75;61.88
7335;BME280;3708;42.632;23.378;2023-02-15T04:09:25;95459.44;;;3.39;62.21
7335;BME280;3708;42.632;23.378;2023-02-15T04:12:10;95469.00;;;3.65;62.05
7335;BME280;3708;42.632;23.378;2023-02-15T04:14:37;95481.38;;;3.84;60.68
7335;BME280;3708;42.632;23.378;2023-02-15T04:17:22;95482.13;;;3.53;61.73
7335;BME280;3708;42.632;23.378;2023-02-15T04:19:49;95487.41;;;3.90;61.51
7335;BME280;3708;42.632;23.378;2023-02-15T04:22:35;95479.25;;;3.76;61.71
7335;BME280;3708;42.632;23.378;2023-02-15T04:25:19;95482.69;;;3.60;61.74
7335;BME280;3708;42.632;23.378;2023-02-15T04:27:48;95488.72;;;3.39;62.90
7335;BME280;3708;42.632;23.378;2023-02-15T04:30:17;95489.88;;;3.05;63.60
7335;BME280;3708;42.632;23.378;2023-02-15T04:32:44;95502.16;;;3.36;62.89
7335;BME280;3708;42.632;23.378;2023-02-15T04:35:12;95502.81;;;3.27;63.03
7335;BME280;3708;42.632;23.378;2023-02-15T04:37:40;95500.84;;;3.12;64.07
7335;BME280;3708;42.632;23.378;2023-02-15T04:40:10;95502.72;;;3.43;63.21
7335;BME280;3708;42.632;23.378;2023-02-15T04:42:38;95514.31;;;3.14;63.84
7335;BME280;3708;42.632;23.378;2023-02-15T04:45:05;95508.59;;;3.60;62.94
7335;BME280;3708;42.632;23.378;2023-02-15T04:47:32;95510.03;;;2.81;64.70
7335;BME280;3708;42.632;23.378;2023-02-15T04:49:59;95499.75;;;3.08;64.93
7335;BME280;3708;42.632;23.378;2023-02-15T04:52:26;95503.53;;;3.44;63.33
7335;BME280;3708;42.632;23.378;2023-02-15T04:54:54;95508.81;;;3.80;62.41
7335;BME280;3708;42.632;23.378;2023-02-15T04:57:21;95508.81;;;3.80;62.28
7335;BME280;3708;42.632;23.378;2023-02-15T04:59:48;95515.53;;;3.28;63.55
7335;BME280;3708;42.632;23.378;2023-02-15T05:02:15;95521.72;;;3.49;63.42
7335;BME280;3708;42.632;23.378;2023-02-15T05:04:42;95518.00;;;3.93;61.88
7335;BME280;3708;42.632;23.378;2023-02-15T05:07:08;95525.00;;;3.66;62.57
7335;BME280;3708;42.632;23.378;2023-02-15T05:09:35;95522.09;;;3.36;63.81
7335;BME280;3708;42.632;23.378;2023-02-15T05:12:04;95527.19;;;3.52;62.63
7335;BME280;3708;42.632;23.378;2023-02-15T05:14:32;95530.63;;;3.58;63.08
7335;BME280;3708;42.632;23.378;2023-02-15T05:16:58;95527.19;;;3.52;62.81
7335;BME280;3708;42.632;23.378;2023-02-15T05:19:27;95530.63;;;3.84;62.10
7335;BME280;3708;42.632;23.378;2023-02-15T05:21:54;95537.56;;;3.09;64.12
7335;BME280;3708;42.632;23.378;2023-02-15T05:24:21;95529.78;;;3.52;62.79
7335;BME280;3708;42.632;23.378;2023-02-15T05:27:08;95534.31;;;3.40;63.19
7335;BME280;3708;42.632;23.378;2023-02-15T05:29:54;95544.41;;;3.63;63.10
7335;BME280;3708;42.632;23.378;2023-02-15T05:32:21;95547.88;;;3.74;62.06
7335;BME280;3708;42.632;23.378;2023-02-15T05:34:47;95538.75;;;3.66;62.19
7335;BME280;3708;42.632;23.378;2023-02-15T05:37:14;95548.19;;;3.56;63.11
7335;BME280;3708;42.632;23.378;2023-02-15T05:39:41;95540.97;;;3.79;62.31
7335;BME280;3708;42.632;23.378;2023-02-15T05:42:09;95545.44;;;3.41;63.38
7335;BME280;3708;42.632;23.378;2023-02-15T05:44:36;95550.97;;;3.98;61.75
7335;BME280;3708;42.632;23.378;2023-02-15T05:47:03;95547.28;;;3.19;63.93
7335;BME280;3708;42.632;23.378;2023-02-15T05:49:33;95548.66;;;3.26;64.05
7335;BME280;3708;42.632;23.378;2023-02-15T05:52:04;95554.59;;;3.70;62.29
7335;BME280;3708;42.632;23.378;2023-02-15T05:54:32;95550.19;;;3.70;62.52
7335;BME280;3708;42.632;23.378;2023-02-15T05:57:00;95545.16;;;3.37;62.87
7335;BME280;3708;42.632;23.378;2023-02-15T05:59:30;95548.00;;;3.62;62.66
7335;BME280;3708;42.632;23.378;2023-02-15T06:02:10;95550.75;;;3.77;62.77
7335;BME280;3708;42.632;23.378;2023-02-15T06:04:38;95548.22;;;3.82;62.14
7335;BME280;3708;42.632;23.378;2023-02-15T06:07:18;95558.78;;;3.76;61.81
7335;BME280;3708;42.632;23.378;2023-02-15T06:09:46;95550.22;;;3.75;61.56
7335;BME280;3708;42.632;23.378;2023-02-15T06:12:16;95547.91;;;4.01;61.46
7335;BME280;3708;42.632;23.378;2023-02-15T06:14:49;95561.34;;;3.98;61.13
7335;BME280;3708;42.632;23.378;2023-02-15T06:17:16;95547.06;;;3.68;62.56
7335;BME280;3708;42.632;23.378;2023-02-15T06:19:43;95559.53;;;3.98;61.85
7335;BME280;3708;42.632;23.378;2023-02-15T06:22:10;95558.28;;;4.06;60.49
7335;BME280;3708;42.632;23.378;2023-02-15T06:24:39;95572.47;;;3.71;62.05
7335;BME280;3708;42.632;23.378;2023-02-15T06:27:08;95557.03;;;4.08;61.04
7335;BME280;3708;42.632;23.378;2023-02-15T06:29:35;95554.44;;;4.08;60.90
7335;BME280;3708;42.632;23.378;2023-02-15T06:32:14;95561.25;;;3.88;61.36
7335;BME280;3708;42.632;23.378;2023-02-15T06:34:43;95561.25;;;3.88;61.73
7335;BME280;3708;42.632;23.378;2023-02-15T06:37:11;95563.78;;;3.82;61.60
7335;BME280;3708;42.632;23.378;2023-02-15T06:39:38;95565.38;;;3.88;61.52
7335;BME280;3708;42.632;23.378;2023-02-15T06:42:05;95563.78;;;3.82;61.57
7335;BME280;3708;42.632;23.378;2023-02-15T06:44:32;95564.66;;;4.20;60.73
7335;BME280;3708;42.632;23.378;2023-02-15T06:46:59;95579.47;;;3.98;60.90
7335;BME280;3708;42.632;23.378;2023-02-15T06:49:27;95567.06;;;4.31;59.83
7335;BME280;3708;42.632;23.378;2023-02-15T06:51:54;95565.72;;;4.24;60.40
7335;BME280;3708;42.632;23.378;2023-02-15T06:54:21;95564.84;;;4.45;59.72
7335;BME280;3708;42.632;23.378;2023-02-15T06:56:48;95559.47;;;4.51;59.48
7335;BME280;3708;42.632;23.378;2023-02-15T06:59:15;95563.31;;;4.49;59.65
7335;BME280;3708;42.632;23.378;2023-02-15T07:01:42;95554.78;;;4.48;58.34
7335;BME280;3708;42.632;23.378;2023-02-15T07:04:09;95552.47;;;4.20;59.65
7335;BME280;3708;42.632;23.378;2023-02-15T07:06:38;95556.41;;;4.28;59.51
7335;BME280;3708;42.632;23.378;2023-02-15T07:09:09;95558.88;;;4.13;59.33
7335;BME280;3708;42.632;23.378;2023-02-15T07:11:42;95565.53;;;4.04;59.71
7335;BME280;3708;42.632;23.378;2023-02-15T07:14:27;95555.59;;;3.69;60.98
7335;BME280;3708;42.632;23.378;2023-02-15T07:16:53;95562.72;;;4.05;59.80
7335;BME280;3708;42.632;23.378;2023-02-15T07:19:26;95584.81;;;4.13;59.93
7335;BME280;3708;42.632;23.378;2023-02-15T07:21:54;95575.09;;;4.25;58.98
7335;BME280;3708;42.632;23.378;2023-02-15T07:24:22;95571.66;;;4.51;58.68
7335;BME280;3708;42.632;23.378;2023-02-15T07:26:49;95576.50;;;4.42;58.93
7335;BME280;3708;42.632;23.378;2023-02-15T07:29:17;95577.56;;;4.41;58.94
7335;BME280;3708;42.632;23.378;2023-02-15T07:31:55;95572.16;;;4.48;58.38
7335;BME280;3708;42.632;23.378;2023-02-15T07:34:25;95563.31;;;4.44;58.52
7335;BME280;3708;42.632;23.378;2023-02-15T07:36:52;95555.75;;;4.42;58.25
7335;BME280;3708;42.632;23.378;2023-02-15T07:39:23;95556.69;;;4.31;58.76
7335;BME280;3708;42.632;23.378;2023-02-15T07:41:50;95549.94;;;3.99;59.54
7335;BME280;3708;42.632;23.378;2023-02-15T07:44:16;95558.84;;;4.39;58.27
7335;BME280;3708;42.632;23.378;2023-02-15T07:46:43;95548.44;;;5.13;56.51
7335;BME280;3708;42.632;23.378;2023-02-15T07:49:10;95555.00;;;4.47;57.91
7335;BME280;3708;42.632;23.378;2023-02-15T07:51:37;95555.66;;;4.64;56.96
7335;BME280;3708;42.632;23.378;2023-02-15T07:54:06;95546.59;;;5.13;56.31
7335;BME280;3708;42.632;23.378;2023-02-15T07:56:34;95541.00;;;5.41;54.50
7335;BME280;3708;42.632;23.378;2023-02-15T07:59:01;95551.44;;;5.57;54.99
7335;BME280;3708;42.632;23.378;2023-02-15T08:01:31;95558.00;;;4.29;57.25
7335;BME280;3708;42.632;23.378;2023-02-15T08:04:00;95560.19;;;4.42;57.23
7335;BME280;3708;42.632;23.378;2023-02-15T08:06:30;95566.97;;;4.48;57.54
7335;BME280;3708;42.632;23.378;2023-02-15T08:08:57;95580.09;;;4.36;57.60
7335;BME280;3708;42.632;23.378;2023-02-15T08:11:26;95554.41;;;5.18;55.98
7335;BME280;3708;42.632;23.378;2023-02-15T08:14:02;95554.56;;;5.49;55.01
7335;BME280;3708;42.632;23.378;2023-02-15T08:16:32;95560.25;;;5.40;54.96
7335;BME280;3708;42.632;23.378;2023-02-15T08:19:01;95556.00;;;5.19;56.45
7335;BME280;3708;42.632;23.378;2023-02-15T08:21:29;95546.72;;;5.38;56.07
7335;BME280;3708;42.632;23.378;2023-02-15T08:23:57;95564.97;;;5.54;55.01
7335;BME280;3708;42.632;23.378;2023-02-15T08:26:25;95563.91;;;5.55;54.68
7335;BME280;3708;42.632;23.378;2023-02-15T08:28:53;95569.44;;;5.78;53.91
7335;BME280;3708;42.632;23.378;2023-02-15T08:31:21;95562.13;;;5.55;54.49
7335;BME280;3708;42.632;23.378;2023-02-15T08:33:50;95570.53;;;5.20;55.02
7335;BME280;3708;42.632;23.378;2023-02-15T08:36:19;95568.75;;;5.26;55.33
7335;BME280;3708;42.632;23.378;2023-02-15T08:38:46;95553.75;;;5.43;55.16
7335;BME280;3708;42.632;23.378;2023-02-15T08:41:15;95571.28;;;5.11;55.70
7335;BME280;3708;42.632;23.378;2023-02-15T08:43:43;95564.19;;;5.53;54.65
7335;BME280;3708;42.632;23.378;2023-02-15T08:46:10;95564.78;;;5.08;55.54
7335;BME280;3708;42.632;23.378;2023-02-15T08:48:40;95582.66;;;4.68;56.72
7335;BME280;3708;42.632;23.378;2023-02-15T08:51:09;95568.25;;;5.29;55.58
7335;BME280;3708;42.632;23.378;2023-02-15T08:53:38;95564.97;;;5.59;54.71
7335;BME280;3708;42.632;23.378;2023-02-15T08:56:05;95562.16;;;5.08;55.42
7335;BME280;3708;42.632;23.378;2023-02-15T08:58:32;95574.19;;;5.24;55.12
7335;BME280;3708;42.632;23.378;2023-02-15T09:01:00;95580.97;;;5.25;54.81
7335;BME280;3708;42.632;23.378;2023-02-15T09:03:28;95571.53;;;5.71;54.03
7335;BME280;3708;42.632;23.378;2023-02-15T09:06:00;95569.31;;;5.38;54.83
7335;BME280;3708;42.632;23.378;2023-02-15T09:08:28;95564.44;;;5.57;54.14
7335;BME280;3708;42.632;23.378;2023-02-15T09:11:05;95573.59;;;5.69;53.62
7335;BME280;3708;42.632;23.378;2023-02-15T09:13:32;95566.41;;;5.96;52.69
7335;BME280;3708;42.632;23.378;2023-02-15T09:16:00;95582.63;;;5.52;52.97
7335;BME280;3708;42.632;23.378;2023-02-15T09:18:27;95572.31;;;5.67;52.70
7335;BME280;3708;42.632;23.378;2023-02-15T09:20:55;95580.88;;;5.10;54.75
7335;BME280;3708;42.632;23.378;2023-02-15T09:23:23;95569.25;;;5.85;53.48
7335;BME280;3708;42.632;23.378;2023-02-15T09:25:50;95569.81;;;6.07;53.08
7335;BME280;3708;42.632;23.378;2023-02-15T09:28:17;95560.75;;;6.25;51.03
7335;BME280;3708;42.632;23.378;2023-02-15T09:30:44;95573.06;;;5.67;52.25
7335;BME280;3708;42.632;23.378;2023-02-15T09:33:11;95563.09;;;5.39;52.86
7335;BME280;3708;42.632;23.378;2023-02-15T09:35:38;95573.66;;;5.17;53.24
7335;BME280;3708;42.632;23.378;2023-02-15T09:38:05;95573.31;;;5.66;53.01
7335;BME280;3708;42.632;23.378;2023-02-15T09:40:38;95567.81;;;5.47;53.32
7335;BME280;3708;42.632;23.378;2023-02-15T09:43:28;95575.00;;;5.92;53.14
7335;BME280;3708;42.632;23.378;2023-02-15T09:46:08;95584.72;;;5.55;53.13
7335;BME280;3708;42.632;23.378;2023-02-15T09:48:40;95565.00;;;5.64;52.61
7335;BME280;3708;42.632;23.378;2023-02-15T09:51:41;95574.69;;;5.83;52.51
7335;BME280;3708;42.632;23.378;2023-02-15T09:54:26;95573.53;;;5.49;53.40
7335;BME280;3708;42.632;23.378;2023-02-15T09:57:05;95576.34;;;5.43;53.39
7335;BME280;3708;42.632;23.378;2023-02-15T09:59:42;95556.16;;;5.60;54.02
7335;BME280;3708;42.632;23.378;2023-02-15T10:02:23;95572.34;;;5.82;53.55
7335;BME280;3708;42.632;23.378;2023-02-15T10:05:02;95557.59;;;6.43;51.54
7335;BME280;3708;42.632;23.378;2023-02-15T10:07:53;95570.84;;;5.96;52.78
7335;BME280;3708;42.632;23.378;2023-02-15T10:10:32;95555.00;;;6.07;52.52
7335;BME280;3708;42.632;23.378;2023-02-15T10:13:18;95561.44;;;5.85;52.70
7335;BME280;3708;42.632;23.378;2023-02-15T10:16:08;95556.28;;;6.15;52.78
7335;BME280;3708;42.632;23.378;2023-02-15T10:18:55;95543.00;;;5.91;52.82
7335;BME280;3708;42.632;23.378;2023-02-15T10:21:39;95555.53;;;6.25;51.40
7335;BME280;3708;42.632;23.378;2023-02-15T10:24:35;95560.22;;;6.48;51.10
7335;BME280;3708;42.632;23.378;2023-02-15T10:27:10;95553.44;;;6.77;50.50
7335;BME280;3708;42.632;23.378;2023-02-15T10:29:44;95558.16;;;6.75;50.68
7335;BME280;3708;42.632;23.378;2023-02-15T10:32:22;95557.84;;;6.86;50.90
7335;BME280;3708;42.632;23.378;2023-02-15T10:34:51;95560.91;;;7.29;49.01
7335;BME280;3708;42.632;23.378;2023-02-15T10:37:40;95546.94;;;6.19;51.40
7335;BME280;3708;42.632;23.378;2023-02-15T10:40:14;95545.13;;;6.14;51.14
7335;BME280;3708;42.632;23.378;2023-02-15T10:42:57;95543.00;;;5.86;52.72
7335;BME280;3708;42.632;23.378;2023-02-15T10:45:36;95543.81;;;6.52;52.02
7335;BME280;3708;42.632;23.378;2023-02-15T10:48:39;95552.16;;;6.39;51.97
7335;BME280;3708;42.632;23.378;2023-02-15T10:51:13;95541.19;;;6.02;51.43
7335;BME280;3708;42.632;23.378;2023-02-15T10:53:59;95532.38;;;6.43;50.06
7335;BME280;3708;42.632;23.378;2023-02-15T10:56:35;95533.69;;;6.51;49.92
7335;BME280;3708;42.632;23.378;2023-02-15T10:59:15;95533.91;;;5.94;51.74
7335;BME280;3708;42.632;23.378;2023-02-15T11:01:51;95526.63;;;5.86;51.23
7335;BME280;3708;42.632;23.378;2023-02-15T11:07:24;95528.22;;;6.22;50.43
7335;BME280;3708;42.632;23.378;2023-02-15T11:09:57;95527.56;;;5.70;52.55
7335;BME280;3708;42.632;23.378;2023-02-15T11:12:27;95535.44;;;5.85;52.10
7335;BME280;3708;42.632;23.378;2023-02-15T11:14:58;95520.94;;;6.44;50.98
7335;BME280;3708;42.632;23.378;2023-02-15T11:17:35;95518.22;;;7.00;50.56
7335;BME280;3708;42.632;23.378;2023-02-15T11:20:11;95530.31;;;6.35;51.47
7335;BME280;3708;42.632;23.378;2023-02-15T11:22:42;95524.06;;;6.16;51.62
7335;BME280;3708;42.632;23.378;2023-02-15T11:25:17;95523.00;;;6.47;51.14
7335;BME280;3708;42.632;23.378;2023-02-15T11:27:45;95516.22;;;6.21;52.16
7335;BME280;3708;42.632;23.378;2023-02-15T11:30:19;95511.53;;;6.63;50.64
7335;BME280;3708;42.632;23.378;2023-02-15T11:32:50;95523.53;;;6.34;52.21
7335;BME280;3708;42.632;23.378;2023-02-15T11:35:24;95515.44;;;6.00;51.41
7335;BME280;3708;42.632;23.378;2023-02-15T11:37:58;95514.13;;;6.83;50.25
7335;BME280;3708;42.632;23.378;2023-02-15T11:40:30;95516.19;;;6.71;50.08
7335;BME280;3708;42.632;23.378;2023-02-15T11:43:02;95523.50;;;6.64;50.83
7335;BME280;3708;42.632;23.378;2023-02-15T11:45:32;95524.56;;;6.43;51.24
7335;BME280;3708;42.632;23.378;2023-02-15T11:48:02;95508.41;;;6.21;50.60
7335;BME280;3708;42.632;23.378;2023-02-15T11:50:36;95503.63;;;7.09;49.35
7335;BME280;3708;42.632;23.378;2023-02-15T11:53:05;95491.91;;;7.01;49.33
7335;BME280;3708;42.632;23.378;2023-02-15T11:55:35;95506.97;;;7.78;47.57
7335;BME280;3708;42.632;23.378;2023-02-15T11:58:06;95488.50;;;7.11;48.70
7335;BME280;3708;42.632;23.378;2023-02-15T12:00:38;95477.28;;;7.69;47.71
7335;BME280;3708;42.632;23.378;2023-02-15T12:03:13;95478.06;;;7.69;47.74
7335;BME280;3708;42.632;23.378;2023-02-15T12:05:44;95481.06;;;7.38;48.24
7335;BME280;3708;42.632;23.378;2023-02-15T12:08:16;95489.31;;;7.60;48.23
7335;BME280;3708;42.632;23.378;2023-02-15T12:10:55;95488.28;;;7.61;46.87
7335;BME280;3708;42.632;23.378;2023-02-15T12:13:27;95480.28;;;7.86;47.10
7335;BME280;3708;42.632;23.378;2023-02-15T12:15:57;95492.59;;;7.27;48.25
7335;BME280;3708;42.632;23.378;2023-02-15T12:18:34;95486.41;;;7.08;48.59
7335;BME280;3708;42.632;23.378;2023-02-15T12:21:03;95476.22;;;7.21;48.52
7335;BME280;3708;42.632;23.378;2023-02-15T12:23:33;95475.88;;;7.82;47.39
7335;BME280;3708;42.632;23.378;2023-02-15T12:26:00;95474.94;;;8.06;46.18
7335;BME280;3708;42.632;23.378;2023-02-15T12:28:31;95464.25;;;8.03;46.89
7335;BME280;3708;42.632;23.378;2023-02-15T12:31:00;95464.56;;;7.96;46.92
7335;BME280;3708;42.632;23.378;2023-02-15T12:33:33;95458.97;;;8.47;46.84
7335;BME280;3708;42.632;23.378;2023-02-15T12:36:09;95455.34;;;8.09;47.12
7335;BME280;3708;42.632;23.378;2023-02-15T12:38:37;95450.16;;;8.66;45.45
7335;BME280;3708;42.632;23.378;2023-02-15T12:41:22;95447.59;;;8.85;45.47
7335;BME280;3708;42.632;23.378;2023-02-15T12:44:04;95453.81;;;8.89;44.81
7335;BME280;3708;42.632;23.378;2023-02-15T12:46:31;95450.28;;;8.22;46.16
7335;BME280;3708;42.632;23.378;2023-02-15T12:49:11;95441.00;;;8.40;45.97
7335;BME280;3708;42.632;23.378;2023-02-15T12:51:49;95436.03;;;8.91;45.49
7335;BME280;3708;42.632;23.378;2023-02-15T12:54:26;95429.75;;;8.92;44.75
7335;BME280;3708;42.632;23.378;2023-02-15T12:56:55;95434.53;;;8.85;45.31
7335;BME280;3708;42.632;23.378;2023-02-15T12:59:23;95441.47;;;9.18;44.34
7335;BME280;3708;42.632;23.378;2023-02-15T13:01:51;95429.75;;;8.92;44.67
7335;BME280;3708;42.632;23.378;2023-02-15T13:04:24;95440.16;;;9.58;43.74
7335;BME280;3708;42.632;23.378;2023-02-15T13:06:54;95430.09;;;9.09;44.70
7335;BME280;3708;42.632;23.378;2023-02-15T13:09:26;95425.41;;;8.82;45.02
7335;BME280;3708;42.632;23.378;2023-02-15T13:12:10;95420.06;;;9.53;43.98
7335;BME280;3708;42.632;23.378;2023-02-15T13:14:43;95430.78;;;10.26;42.83
7335;BME280;3708;42.632;23.378;2023-02-15T13:17:12;95421.28;;;10.30;42.15
7335;BME280;3708;42.632;23.378;2023-02-15T13:19:44;95428.63;;;10.15;42.00
7335;BME280;3708;42.632;23.378;2023-02-15T13:22:14;95415.19;;;10.03;42.52
7335;BME280;3708;42.632;23.378;2023-02-15T13:24:43;95413.47;;;10.98;41.17
7335;BME280;3708;42.632;23.378;2023-02-15T13:27:16;95411.88;;;11.38;39.87
7335;BME280;3708;42.632;23.378;2023-02-15T13:29:44;95416.00;;;11.66;39.31
7335;BME280;3708;42.632;23.378;2023-02-15T13:32:24;95424.63;;;10.49;40.93
7335;BME280;3708;42.632;23.378;2023-02-15T13:34:54;95412.66;;;9.79;42.81
7335;BME280;3708;42.632;23.378;2023-02-15T13:37:35;95420.53;;;9.79;42.81
7335;BME280;3708;42.632;23.378;2023-02-15T13:40:07;95425.16;;;9.45;43.35
7335;BME280;3708;42.632;23.378;2023-02-15T13:42:37;95413.34;;;9.84;43.08
7335;BME280;3708;42.632;23.378;2023-02-15T13:45:16;95418.13;;;9.64;42.67
7335;BME280;3708;42.632;23.378;2023-02-15T13:47:54;95420.44;;;9.28;43.44
7335;BME280;3708;42.632;23.378;2023-02-15T13:50:39;95420.19;;;10.18;42.27
7335;BME280;3708;42.632;23.378;2023-02-15T13:53:25;95424.47;;;10.27;42.11